sensor_id;sensor_type;location;lat;lon;timestamp;P1;durP1;ratioP1;P2;durP2;ratioP2
12383;SDS011;6256;63.808;20.336;2022-09-03T00:01:56;1.57;;;1.13;;
12383;SDS011;6256;63.808;20.336;2022-09-03T00:04:44;1.83;;;1.13;;
12383;SDS011;6256;63.808;20.336;2022-09-03T00:07:29;3.87;;;1.47;;
12383;SDS011;6256;63.808;20.336;2022-09-03T00:10:20;1.37;;;1.00;;
12383;SDS011;6256;63.808;20.336;2022-09-03T00:12:51;1.50;;;1.30;;
12383;SDS011;6256;63.808;20.336;2022-09-03T00:15:21;1.50;;;0.93;;
12383;SDS011;6256;63.808;20.336;2022-09-03T00:17:53;1.63;;;1.00;;
12383;SDS011;6256;63.808;20.336;2022-09-03T00:20:30;2.07;;;1.30;;
12383;SDS011;6256;63.808;20.336;2022-09-03T00:23:10;1.37;;;0.93;;
12383;SDS011;6256;63.808;20.336;2022-09-03T00:25:42;2.00;;;1.27;;
12383;SDS011;6256;63.808;20.336;2022-09-03T00:28:27;1.27;;;1.10;;
12383;SDS011;6256;63.808;20.336;2022-09-03T00:31:20;1.37;;;0.97;;
12383;SDS011;6256;63.808;20.336;2022-09-03T00:33:51;1.30;;;0.93;;
12383;SDS011;6256;63.808;20.336;2022-09-03T00:36:42;1.40;;;1.10;;
12383;SDS011;6256;63.808;20.336;2022-09-03T00:39:20;2.23;;;1.10;;
12383;SDS011;6256;63.808;20.336;2022-09-03T01:01:59;1.43;;;1.23;;
12383;SDS011;6256;63.808;20.336;2022-09-03T01:04:38;1.17;;;1.03;;
12383;SDS011;6256;63.808;20.336;2022-09-03T01:07:40;1.83;;;1.20;;
12383;SDS011;6256;63.808;20.336;2022-09-03T01:15:34;1.53;;;1.43;;
12383;SDS011;6256;63.808;20.336;2022-09-03T01:18:22;1.87;;;1.00;;
12383;SDS011;6256;63.808;20.336;2022-09-03T01:23:31;1.73;;;1.13;;
12383;SDS011;6256;63.808;20.336;2022-09-03T01:29:06;1.10;;;1.00;;
12383;SDS011;6256;63.808;20.336;2022-09-03T01:31:56;0.60;;;0.60;;
12383;SDS011;6256;63.808;20.336;2022-09-03T02:04:54;1.20;;;1.10;;
12383;SDS011;6256;63.808;20.336;2022-09-03T02:07:30;1.27;;;0.90;;
12383;SDS011;6256;63.808;20.336;2022-09-03T02:09:59;1.60;;;0.90;;
12383;SDS011;6256;63.808;20.336;2022-09-03T02:12:25;1.43;;;0.90;;
12383;SDS011;6256;63.808;20.336;2022-09-03T02:14:57;0.80;;;0.80;;
12383;SDS011;6256;63.808;20.336;2022-09-03T02:17:30;0.83;;;0.80;;
12383;SDS011;6256;63.808;20.336;2022-09-03T02:19:57;1.53;;;0.93;;
12383;SDS011;6256;63.808;20.336;2022-09-03T02:22:29;1.40;;;1.10;;
12383;SDS011;6256;63.808;20.336;2022-09-03T02:24:55;0.97;;;0.70;;
12383;SDS011;6256;63.808;20.336;2022-09-03T02:27:21;1.10;;;0.77;;
12383;SDS011;6256;63.808;20.336;2022-09-03T02:29:47;1.27;;;1.00;;
12383;SDS011;6256;63.808;20.336;2022-09-03T02:32:13;1.07;;;0.93;;
12383;SDS011;6256;63.808;20.336;2022-09-03T02:34:40;2.20;;;0.80;;
12383;SDS011;6256;63.808;20.336;2022-09-03T02:37:12;1.07;;;0.80;;
12383;SDS011;6256;63.808;20.336;2022-09-03T02:39:39;0.70;;;0.70;;
12383;SDS011;6256;63.808;20.336;2022-09-03T02:42:05;0.80;;;0.70;;
12383;SDS011;6256;63.808;20.336;2022-09-03T02:44:32;1.40;;;1.10;;
12383;SDS011;6256;63.808;20.336;2022-09-03T02:47:04;0.77;;;0.77;;
12383;SDS011;6256;63.808;20.336;2022-09-03T02:49:31;1.60;;;1.07;;
12383;SDS011;6256;63.808;20.336;2022-09-03T02:51:58;1.03;;;0.93;;
12383;SDS011;6256;63.808;20.336;2022-09-03T02:54:25;1.90;;;0.90;;
12383;SDS011;6256;63.808;20.336;2022-09-03T02:56:52;1.13;;;0.80;;
12383;SDS011;6256;63.808;20.336;2022-09-03T02:59:19;1.27;;;1.00;;
12383;SDS011;6256;63.808;20.336;2022-09-03T03:01:46;1.10;;;1.00;;
12383;SDS011;6256;63.808;20.336;2022-09-03T03:04:12;1.00;;;0.90;;
12383;SDS011;6256;63.808;20.336;2022-09-03T03:06:38;1.93;;;0.80;;
12383;SDS011;6256;63.808;20.336;2022-09-03T03:09:04;0.90;;;0.90;;
12383;SDS011;6256;63.808;20.336;2022-09-03T03:11:31;0.60;;;0.60;;
12383;SDS011;6256;63.808;20.336;2022-09-03T03:14:01;1.87;;;0.90;;
12383;SDS011;6256;63.808;20.336;2022-09-03T03:16:27;0.90;;;0.70;;
12383;SDS011;6256;63.808;20.336;2022-09-03T03:18:54;0.83;;;0.70;;
12383;SDS011;6256;63.808;20.336;2022-09-03T03:21:21;1.00;;;0.60;;
12383;SDS011;6256;63.808;20.336;2022-09-03T03:23:47;0.70;;;0.70;;
12383;SDS011;6256;63.808;20.336;2022-09-03T03:26:13;0.93;;;0.83;;
12383;SDS011;6256;63.808;20.336;2022-09-03T03:28:43;0.97;;;0.70;;
12383;SDS011;6256;63.808;20.336;2022-09-03T03:31:14;0.77;;;0.77;;
12383;SDS011;6256;63.808;20.336;2022-09-03T03:33:42;0.50;;;0.50;;
12383;SDS011;6256;63.808;20.336;2022-09-03T03:36:09;1.00;;;0.70;;
12383;SDS011;6256;63.808;20.336;2022-09-03T03:38:37;0.83;;;0.60;;
12383;SDS011;6256;63.808;20.336;2022-09-03T03:41:37;1.13;;;0.80;;
12383;SDS011;6256;63.808;20.336;2022-09-03T03:43:58;0.67;;;0.67;;
12383;SDS011;6256;63.808;20.336;2022-09-03T03:46:27;0.60;;;0.60;;
12383;SDS011;6256;63.808;20.336;2022-09-03T03:48:55;0.73;;;0.70;;
12383;SDS011;6256;63.808;20.336;2022-09-03T03:51:21;0.77;;;0.77;;
12383;SDS011;6256;63.808;20.336;2022-09-03T03:53:47;1.07;;;0.83;;
12383;SDS011;6256;63.808;20.336;2022-09-03T03:56:14;0.67;;;0.53;;
12383;SDS011;6256;63.808;20.336;2022-09-03T03:58:41;0.80;;;0.60;;
12383;SDS011;6256;63.808;20.336;2022-09-03T04:01:15;2.57;;;0.83;;
12383;SDS011;6256;63.808;20.336;2022-09-03T04:03:42;0.60;;;0.60;;
12383;SDS011;6256;63.808;20.336;2022-09-03T04:06:09;1.03;;;0.90;;
12383;SDS011;6256;63.808;20.336;2022-09-03T04:08:37;0.97;;;0.70;;
12383;SDS011;6256;63.808;20.336;2022-09-03T04:11:05;0.60;;;0.60;;
12383;SDS011;6256;63.808;20.336;2022-09-03T04:13:33;0.60;;;0.60;;
12383;SDS011;6256;63.808;20.336;2022-09-03T04:18:29;0.87;;;0.80;;
12383;SDS011;6256;63.808;20.336;2022-09-03T04:21:29;0.97;;;0.77;;
12383;SDS011;6256;63.808;20.336;2022-09-03T04:23:48;1.43;;;0.60;;
12383;SDS011;6256;63.808;20.336;2022-09-03T04:26:17;1.97;;;0.73;;
12383;SDS011;6256;63.808;20.336;2022-09-03T04:28:44;0.63;;;0.63;;
12383;SDS011;6256;63.808;20.336;2022-09-03T04:31:11;0.43;;;0.43;;
12383;SDS011;6256;63.808;20.336;2022-09-03T04:33:38;0.67;;;0.67;;
12383;SDS011;6256;63.808;20.336;2022-09-03T04:38:35;0.67;;;0.60;;
12383;SDS011;6256;63.808;20.336;2022-09-03T04:41:02;0.60;;;0.60;;
12383;SDS011;6256;63.808;20.336;2022-09-03T04:43:28;1.17;;;1.07;;
12383;SDS011;6256;63.808;20.336;2022-09-03T04:45:55;0.57;;;0.57;;
12383;SDS011;6256;63.808;20.336;2022-09-03T04:48:26;0.50;;;0.50;;
12383;SDS011;6256;63.808;20.336;2022-09-03T04:50:52;0.50;;;0.50;;
12383;SDS011;6256;63.808;20.336;2022-09-03T04:53:19;0.60;;;0.57;;
12383;SDS011;6256;63.808;20.336;2022-09-03T04:55:45;1.33;;;0.97;;
12383;SDS011;6256;63.808;20.336;2022-09-03T04:58:11;0.57;;;0.57;;
12383;SDS011;6256;63.808;20.336;2022-09-03T05:00:37;0.50;;;0.50;;
12383;SDS011;6256;63.808;20.336;2022-09-03T05:03:03;0.83;;;0.50;;
12383;SDS011;6256;63.808;20.336;2022-09-03T05:05:32;0.50;;;0.50;;
12383;SDS011;6256;63.808;20.336;2022-09-03T05:08:01;0.57;;;0.57;;
12383;SDS011;6256;63.808;20.336;2022-09-03T05:10:28;0.63;;;0.63;;
12383;SDS011;6256;63.808;20.336;2022-09-03T05:15:30;0.97;;;0.80;;
12383;SDS011;6256;63.808;20.336;2022-09-03T05:18:00;0.73;;;0.60;;
12383;SDS011;6256;63.808;20.336;2022-09-03T05:20:27;0.50;;;0.50;;
12383;SDS011;6256;63.808;20.336;2022-09-03T05:22:54;2.03;;;0.50;;
12383;SDS011;6256;63.808;20.336;2022-09-03T05:25:21;0.30;;;0.30;;
12383;SDS011;6256;63.808;20.336;2022-09-03T05:27:48;0.50;;;0.50;;
12383;SDS011;6256;63.808;20.336;2022-09-03T05:30:15;0.50;;;0.50;;
12383;SDS011;6256;63.808;20.336;2022-09-03T05:32:41;0.60;;;0.60;;
12383;SDS011;6256;63.808;20.336;2022-09-03T05:35:07;0.40;;;0.40;;
12383;SDS011;6256;63.808;20.336;2022-09-03T05:37:34;0.60;;;0.50;;
12383;SDS011;6256;63.808;20.336;2022-09-03T05:40:04;0.67;;;0.60;;
12383;SDS011;6256;63.808;20.336;2022-09-03T05:42:30;0.50;;;0.50;;
12383;SDS011;6256;63.808;20.336;2022-09-03T05:44:59;0.50;;;0.50;;
12383;SDS011;6256;63.808;20.336;2022-09-03T05:47:24;1.17;;;0.40;;
12383;SDS011;6256;63.808;20.336;2022-09-03T05:49:50;0.40;;;0.40;;
12383;SDS011;6256;63.808;20.336;2022-09-03T05:52:16;0.50;;;0.50;;
12383;SDS011;6256;63.808;20.336;2022-09-03T05:54:43;0.57;;;0.57;;
12383;SDS011;6256;63.808;20.336;2022-09-03T05:57:10;0.70;;;0.50;;
12383;SDS011;6256;63.808;20.336;2022-09-03T05:59:36;0.57;;;0.57;;
12383;SDS011;6256;63.808;20.336;2022-09-03T06:02:03;0.53;;;0.53;;
12383;SDS011;6256;63.808;20.336;2022-09-03T06:04:29;0.50;;;0.50;;
12383;SDS011;6256;63.808;20.336;2022-09-03T06:06:55;0.50;;;0.50;;
12383;SDS011;6256;63.808;20.336;2022-09-03T06:09:20;0.47;;;0.47;;
12383;SDS011;6256;63.808;20.336;2022-09-03T06:11:46;0.50;;;0.50;;
12383;SDS011;6256;63.808;20.336;2022-09-03T06:14:15;0.60;;;0.60;;
12383;SDS011;6256;63.808;20.336;2022-09-03T06:16:45;0.50;;;0.40;;
12383;SDS011;6256;63.808;20.336;2022-09-03T06:19:16;0.40;;;0.40;;
12383;SDS011;6256;63.808;20.336;2022-09-03T06:21:43;0.50;;;0.50;;
12383;SDS011;6256;63.808;20.336;2022-09-03T06:24:11;0.50;;;0.50;;
12383;SDS011;6256;63.808;20.336;2022-09-03T06:26:41;0.30;;;0.30;;
12383;SDS011;6256;63.808;20.336;2022-09-03T06:29:07;0.30;;;0.30;;
12383;SDS011;6256;63.808;20.336;2022-09-03T06:31:33;0.57;;;0.50;;
12383;SDS011;6256;63.808;20.336;2022-09-03T06:33:59;0.50;;;0.50;;
12383;SDS011;6256;63.808;20.336;2022-09-03T06:36:25;0.50;;;0.50;;
12383;SDS011;6256;63.808;20.336;2022-09-03T06:38:52;0.30;;;0.30;;
12383;SDS011;6256;63.808;20.336;2022-09-03T06:41:20;0.50;;;0.50;;
12383;SDS011;6256;63.808;20.336;2022-09-03T06:43:52;0.30;;;0.30;;
12383;SDS011;6256;63.808;20.336;2022-09-03T06:46:20;0.50;;;0.50;;
12383;SDS011;6256;63.808;20.336;2022-09-03T06:48:47;0.40;;;0.40;;
12383;SDS011;6256;63.808;20.336;2022-09-03T06:51:16;0.60;;;0.40;;
12383;SDS011;6256;63.808;20.336;2022-09-03T06:53:47;0.20;;;0.20;;
12383;SDS011;6256;63.808;20.336;2022-09-03T06:56:17;1.23;;;0.40;;
12383;SDS011;6256;63.808;20.336;2022-09-03T06:58:47;0.40;;;0.40;;
12383;SDS011;6256;63.808;20.336;2022-09-03T07:01:17;0.60;;;0.60;;
12383;SDS011;6256;63.808;20.336;2022-09-03T07:03:45;0.37;;;0.37;;
12383;SDS011;6256;63.808;20.336;2022-09-03T07:06:13;0.40;;;0.40;;
12383;SDS011;6256;63.808;20.336;2022-09-03T07:08:40;0.50;;;0.50;;
12383;SDS011;6256;63.808;20.336;2022-09-03T07:11:08;0.40;;;0.40;;
12383;SDS011;6256;63.808;20.336;2022-09-03T07:13:46;0.60;;;0.60;;
12383;SDS011;6256;63.808;20.336;2022-09-03T07:16:14;0.40;;;0.40;;
12383;SDS011;6256;63.808;20.336;2022-09-03T07:19:07;0.40;;;0.40;;
12383;SDS011;6256;63.808;20.336;2022-09-03T07:21:34;0.30;;;0.30;;
12383;SDS011;6256;63.808;20.336;2022-09-03T07:24:00;0.33;;;0.33;;
12383;SDS011;6256;63.808;20.336;2022-09-03T07:26:29;0.40;;;0.40;;
12383;SDS011;6256;63.808;20.336;2022-09-03T07:28:57;0.40;;;0.40;;
12383;SDS011;6256;63.808;20.336;2022-09-03T07:31:28;0.47;;;0.47;;
12383;SDS011;6256;63.808;20.336;2022-09-03T07:33:55;0.40;;;0.40;;
12383;SDS011;6256;63.808;20.336;2022-09-03T07:36:26;0.30;;;0.30;;
12383;SDS011;6256;63.808;20.336;2022-09-03T07:38:56;0.40;;;0.40;;
12383;SDS011;6256;63.808;20.336;2022-09-03T07:41:23;0.40;;;0.40;;
12383;SDS011;6256;63.808;20.336;2022-09-03T07:43:51;0.30;;;0.30;;
12383;SDS011;6256;63.808;20.336;2022-09-03T07:46:18;0.50;;;0.50;;
12383;SDS011;6256;63.808;20.336;2022-09-03T07:48:51;0.37;;;0.37;;
12383;SDS011;6256;63.808;20.336;2022-09-03T07:51:19;0.40;;;0.40;;
12383;SDS011;6256;63.808;20.336;2022-09-03T07:53:45;0.43;;;0.43;;
12383;SDS011;6256;63.808;20.336;2022-09-03T07:56:12;0.40;;;0.40;;
12383;SDS011;6256;63.808;20.336;2022-09-03T07:58:39;0.40;;;0.40;;
12383;SDS011;6256;63.808;20.336;2022-09-03T08:01:10;0.40;;;0.40;;
12383;SDS011;6256;63.808;20.336;2022-09-03T08:03:38;0.40;;;0.40;;
12383;SDS011;6256;63.808;20.336;2022-09-03T08:06:07;0.43;;;0.40;;
12383;SDS011;6256;63.808;20.336;2022-09-03T08:08:34;0.90;;;0.73;;
12383;SDS011;6256;63.808;20.336;2022-09-03T08:11:04;0.47;;;0.40;;
12383;SDS011;6256;63.808;20.336;2022-09-03T08:13:44;0.40;;;0.40;;
12383;SDS011;6256;63.808;20.336;2022-09-03T08:16:13;0.40;;;0.40;;
12383;SDS011;6256;63.808;20.336;2022-09-03T08:18:42;0.87;;;0.37;;
12383;SDS011;6256;63.808;20.336;2022-09-03T08:21:09;0.83;;;0.60;;
12383;SDS011;6256;63.808;20.336;2022-09-03T08:23:40;0.47;;;0.47;;
12383;SDS011;6256;63.808;20.336;2022-09-03T08:26:09;0.40;;;0.40;;
12383;SDS011;6256;63.808;20.336;2022-09-03T08:28:36;0.30;;;0.30;;
12383;SDS011;6256;63.808;20.336;2022-09-03T08:31:03;0.43;;;0.43;;
12383;SDS011;6256;63.808;20.336;2022-09-03T08:33:35;0.50;;;0.50;;
12383;SDS011;6256;63.808;20.336;2022-09-03T08:36:07;0.40;;;0.40;;
12383;SDS011;6256;63.808;20.336;2022-09-03T08:38:36;0.43;;;0.43;;
12383;SDS011;6256;63.808;20.336;2022-09-03T08:41:47;0.40;;;0.40;;
12383;SDS011;6256;63.808;20.336;2022-09-03T08:46:46;0.30;;;0.30;;
12383;SDS011;6256;63.808;20.336;2022-09-03T08:49:18;0.40;;;0.40;;
12383;SDS011;6256;63.808;20.336;2022-09-03T08:51:45;0.30;;;0.30;;
12383;SDS011;6256;63.808;20.336;2022-09-03T08:54:13;0.60;;;0.50;;
12383;SDS011;6256;63.808;20.336;2022-09-03T08:56:40;0.40;;;0.40;;
12383;SDS011;6256;63.808;20.336;2022-09-03T08:59:07;1.20;;;0.43;;
12383;SDS011;6256;63.808;20.336;2022-09-03T09:01:54;0.43;;;0.43;;
12383;SDS011;6256;63.808;20.336;2022-09-03T09:04:51;0.40;;;0.40;;
12383;SDS011;6256;63.808;20.336;2022-09-03T09:10:25;0.40;;;0.40;;
12383;SDS011;6256;63.808;20.336;2022-09-03T09:23:26;0.33;;;0.33;;
12383;SDS011;6256;63.808;20.336;2022-09-03T09:25:55;0.43;;;0.43;;
12383;SDS011;6256;63.808;20.336;2022-09-03T09:28:27;0.80;;;0.57;;
12383;SDS011;6256;63.808;20.336;2022-09-03T09:31:01;0.40;;;0.40;;
12383;SDS011;6256;63.808;20.336;2022-09-03T09:33:29;0.50;;;0.50;;
12383;SDS011;6256;63.808;20.336;2022-09-03T09:36:05;0.33;;;0.33;;
12383;SDS011;6256;63.808;20.336;2022-09-03T09:38:36;0.40;;;0.40;;
12383;SDS011;6256;63.808;20.336;2022-09-03T09:41:16;0.40;;;0.40;;
12383;SDS011;6256;63.808;20.336;2022-09-03T09:43:44;0.40;;;0.40;;
12383;SDS011;6256;63.808;20.336;2022-09-03T09:46:13;0.43;;;0.43;;
12383;SDS011;6256;63.808;20.336;2022-09-03T09:48:53;0.47;;;0.47;;
12383;SDS011;6256;63.808;20.336;2022-09-03T09:51:23;0.40;;;0.40;;
12383;SDS011;6256;63.808;20.336;2022-09-03T09:56:28;0.33;;;0.30;;
12383;SDS011;6256;63.808;20.336;2022-09-03T09:59:04;0.37;;;0.37;;
12383;SDS011;6256;63.808;20.336;2022-09-03T10:01:32;0.40;;;0.40;;
12383;SDS011;6256;63.808;20.336;2022-09-03T10:03:58;0.40;;;0.40;;
12383;SDS011;6256;63.808;20.336;2022-09-03T10:06:32;0.30;;;0.30;;
12383;SDS011;6256;63.808;20.336;2022-09-03T10:09:18;0.50;;;0.50;;
12383;SDS011;6256;63.808;20.336;2022-09-03T10:11:58;0.50;;;0.50;;
12383;SDS011;6256;63.808;20.336;2022-09-03T10:17:16;0.40;;;0.40;;
12383;SDS011;6256;63.808;20.336;2022-09-03T10:20:12;0.30;;;0.30;;
12383;SDS011;6256;63.808;20.336;2022-09-03T10:23:06;0.30;;;0.30;;
12383;SDS011;6256;63.808;20.336;2022-09-03T10:26:06;0.28;;;0.28;;
12383;SDS011;6256;63.808;20.336;2022-09-03T10:28:38;0.35;;;0.35;;
12383;SDS011;6256;63.808;20.336;2022-09-03T10:40:14;0.50;;;0.50;;
12383;SDS011;6256;63.808;20.336;2022-09-03T10:46:10;0.50;;;0.32;;
12383;SDS011;6256;63.808;20.336;2022-09-03T10:51:49;0.30;;;0.30;;
12383;SDS011;6256;63.808;20.336;2022-09-03T10:54:48;0.40;;;0.40;;
12383;SDS011;6256;63.808;20.336;2022-09-03T10:57:43;0.43;;;0.43;;
12383;SDS011;6256;63.808;20.336;2022-09-03T11:00:15;0.30;;;0.30;;
12383;SDS011;6256;63.808;20.336;2022-09-03T11:05:36;0.60;;;0.60;;
12383;SDS011;6256;63.808;20.336;2022-09-03T11:08:26;1.20;;;0.50;;
12383;SDS011;6256;63.808;20.336;2022-09-03T11:13:46;0.30;;;0.30;;
12383;SDS011;6256;63.808;20.336;2022-09-03T11:16:17;0.40;;;0.40;;
12383;SDS011;6256;63.808;20.336;2022-09-03T11:18:56;1.75;;;0.30;;
12383;SDS011;6256;63.808;20.336;2022-09-03T11:21:27;0.63;;;0.60;;
12383;SDS011;6256;63.808;20.336;2022-09-03T11:26:29;0.43;;;0.40;;
12383;SDS011;6256;63.808;20.336;2022-09-03T11:29:05;2.17;;;0.50;;
12383;SDS011;6256;63.808;20.336;2022-09-03T11:31:45;0.50;;;0.50;;
12383;SDS011;6256;63.808;20.336;2022-09-03T11:35:11;0.40;;;0.40;;
12383;SDS011;6256;63.808;20.336;2022-09-03T11:40:05;0.40;;;0.40;;
12383;SDS011;6256;63.808;20.336;2022-09-03T11:42:36;0.10;;;0.10;;
12383;SDS011;6256;63.808;20.336;2022-09-03T11:47:44;0.45;;;0.38;;
12383;SDS011;6256;63.808;20.336;2022-09-03T11:50:49;0.30;;;0.30;;
12383;SDS011;6256;63.808;20.336;2022-09-03T11:53:10;0.88;;;0.40;;
12383;SDS011;6256;63.808;20.336;2022-09-03T11:55:54;0.30;;;0.30;;
12383;SDS011;6256;63.808;20.336;2022-09-03T11:58:33;0.57;;;0.57;;
12383;SDS011;6256;63.808;20.336;2022-09-03T12:01:02;0.30;;;0.30;;
12383;SDS011;6256;63.808;20.336;2022-09-03T12:11:28;0.40;;;0.40;;
12383;SDS011;6256;63.808;20.336;2022-09-03T12:14:08;0.30;;;0.30;;
12383;SDS011;6256;63.808;20.336;2022-09-03T12:22:02;0.50;;;0.40;;
12383;SDS011;6256;63.808;20.336;2022-09-03T12:24:29;0.30;;;0.30;;
12383;SDS011;6256;63.808;20.336;2022-09-03T12:26:59;0.40;;;0.40;;
12383;SDS011;6256;63.808;20.336;2022-09-03T12:29:27;0.50;;;0.50;;
12383;SDS011;6256;63.808;20.336;2022-09-03T12:31:54;0.40;;;0.40;;
12383;SDS011;6256;63.808;20.336;2022-09-03T12:34:30;0.43;;;0.43;;
12383;SDS011;6256;63.808;20.336;2022-09-03T12:36:56;0.50;;;0.50;;
12383;SDS011;6256;63.808;20.336;2022-09-03T12:39:23;0.40;;;0.40;;
12383;SDS011;6256;63.808;20.336;2022-09-03T12:47:01;0.20;;;0.20;;
12383;SDS011;6256;63.808;20.336;2022-09-03T12:49:34;0.57;;;0.43;;
12383;SDS011;6256;63.808;20.336;2022-09-03T12:52:04;0.40;;;0.40;;
12383;SDS011;6256;63.808;20.336;2022-09-03T12:54:45;0.40;;;0.40;;
12383;SDS011;6256;63.808;20.336;2022-09-03T12:57:19;0.63;;;0.50;;
12383;SDS011;6256;63.808;20.336;2022-09-03T12:59:48;0.60;;;0.60;;
12383;SDS011;6256;63.808;20.336;2022-09-03T13:02:19;0.50;;;0.50;;
12383;SDS011;6256;63.808;20.336;2022-09-03T13:04:46;1.67;;;0.43;;
12383;SDS011;6256;63.808;20.336;2022-09-03T13:07:46;0.52;;;0.52;;
12383;SDS011;6256;63.808;20.336;2022-09-03T13:10:06;1.35;;;0.50;;
12383;SDS011;6256;63.808;20.336;2022-09-03T13:12:48;1.27;;;0.60;;
12383;SDS011;6256;63.808;20.336;2022-09-03T13:15:19;1.23;;;0.60;;
12383;SDS011;6256;63.808;20.336;2022-09-03T13:28:39;0.50;;;0.50;;
12383;SDS011;6256;63.808;20.336;2022-09-03T13:33:56;0.30;;;0.30;;
12383;SDS011;6256;63.808;20.336;2022-09-03T13:36:33;0.30;;;0.30;;
12383;SDS011;6256;63.808;20.336;2022-09-03T13:39:26;0.40;;;0.40;;
12383;SDS011;6256;63.808;20.336;2022-09-03T13:42:06;0.68;;;0.68;;
12383;SDS011;6256;63.808;20.336;2022-09-03T13:49:53;0.38;;;0.38;;
12383;SDS011;6256;63.808;20.336;2022-09-03T13:52:50;0.50;;;0.50;;
12383;SDS011;6256;63.808;20.336;2022-09-03T14:00:40;0.50;;;0.50;;
12383;SDS011;6256;63.808;20.336;2022-09-03T14:03:24;0.40;;;0.40;;
12383;SDS011;6256;63.808;20.336;2022-09-03T14:06:10;0.60;;;0.60;;
12383;SDS011;6256;63.808;20.336;2022-09-03T14:11:27;0.50;;;0.50;;
12383;SDS011;6256;63.808;20.336;2022-09-03T14:21:57;0.40;;;0.40;;
12383;SDS011;6256;63.808;20.336;2022-09-03T14:25:15;0.40;;;0.40;;
12383;SDS011;6256;63.808;20.336;2022-09-03T14:27:29;0.40;;;0.40;;
12383;SDS011;6256;63.808;20.336;2022-09-03T14:30:04;0.50;;;0.50;;
12383;SDS011;6256;63.808;20.336;2022-09-03T14:32:46;0.40;;;0.40;;
12383;SDS011;6256;63.808;20.336;2022-09-03T14:38:09;0.50;;;0.50;;
12383;SDS011;6256;63.808;20.336;2022-09-03T14:40:45;0.50;;;0.50;;
12383;SDS011;6256;63.808;20.336;2022-09-03T15:05:09;2.45;;;1.20;;
12383;SDS011;6256;63.808;20.336;2022-09-03T15:07:55;1.00;;;1.00;;
12383;SDS011;6256;63.808;20.336;2022-09-03T15:16:05;0.67;;;0.60;;
12383;SDS011;6256;63.808;20.336;2022-09-03T15:21:40;1.08;;;0.85;;
12383;SDS011;6256;63.808;20.336;2022-09-03T15:30:08;0.50;;;0.50;;
12383;SDS011;6256;63.808;20.336;2022-09-03T15:35:48;1.37;;;0.50;;
12383;SDS011;6256;63.808;20.336;2022-09-03T15:43:18;0.50;;;0.50;;
12383;SDS011;6256;63.808;20.336;2022-09-03T15:45:53;0.60;;;0.60;;
12383;SDS011;6256;63.808;20.336;2022-09-03T15:48:55;0.40;;;0.40;;
12383;SDS011;6256;63.808;20.336;2022-09-03T15:51:31;1.83;;;0.60;;
12383;SDS011;6256;63.808;20.336;2022-09-03T15:54:29;0.87;;;0.63;;
12383;SDS011;6256;63.808;20.336;2022-09-03T15:57:25;0.80;;;0.80;;
12383;SDS011;6256;63.808;20.336;2022-09-03T16:00:02;0.70;;;0.70;;
12383;SDS011;6256;63.808;20.336;2022-09-03T16:02:52;0.80;;;0.80;;
12383;SDS011;6256;63.808;20.336;2022-09-03T16:05:47;1.20;;;1.10;;
12383;SDS011;6256;63.808;20.336;2022-09-03T16:10:53;1.13;;;1.03;;
12383;SDS011;6256;63.808;20.336;2022-09-03T16:16:23;1.13;;;1.13;;
12383;SDS011;6256;63.808;20.336;2022-09-03T16:26:49;0.70;;;0.70;;
12383;SDS011;6256;63.808;20.336;2022-09-03T16:29:29;2.73;;;0.83;;
12383;SDS011;6256;63.808;20.336;2022-09-03T16:32:14;2.50;;;0.80;;
12383;SDS011;6256;63.808;20.336;2022-09-03T16:40:21;1.10;;;0.93;;
12383;SDS011;6256;63.808;20.336;2022-09-03T16:46:33;0.83;;;0.83;;
12383;SDS011;6256;63.808;20.336;2022-09-03T17:08:07;0.73;;;0.73;;
12383;SDS011;6256;63.808;20.336;2022-09-03T17:13:53;0.50;;;0.50;;
12383;SDS011;6256;63.808;20.336;2022-09-03T17:24:49;0.70;;;0.60;;
12383;SDS011;6256;63.808;20.336;2022-09-03T17:41:33;0.80;;;0.80;;
12383;SDS011;6256;63.808;20.336;2022-09-03T17:50:05;0.93;;;0.90;;
12383;SDS011;6256;63.808;20.336;2022-09-03T17:52:37;0.80;;;0.80;;
12383;SDS011;6256;63.808;20.336;2022-09-03T17:55:16;0.73;;;0.73;;
12383;SDS011;6256;63.808;20.336;2022-09-03T17:57:53;0.70;;;0.70;;
12383;SDS011;6256;63.808;20.336;2022-09-03T18:03:03;0.97;;;0.70;;
12383;SDS011;6256;63.808;20.336;2022-09-03T18:05:44;0.67;;;0.67;;
12383;SDS011;6256;63.808;20.336;2022-09-03T18:08:19;0.77;;;0.77;;
12383;SDS011;6256;63.808;20.336;2022-09-03T18:16:36;1.10;;;0.90;;
12383;SDS011;6256;63.808;20.336;2022-09-03T18:21:42;1.00;;;0.80;;
12383;SDS011;6256;63.808;20.336;2022-09-03T18:24:27;0.77;;;0.70;;
12383;SDS011;6256;63.808;20.336;2022-09-03T18:27:14;0.80;;;0.80;;
12383;SDS011;6256;63.808;20.336;2022-09-03T18:32:53;0.80;;;0.80;;
12383;SDS011;6256;63.808;20.336;2022-09-03T18:35:39;1.17;;;0.70;;
12383;SDS011;6256;63.808;20.336;2022-09-03T18:38:29;1.07;;;0.70;;
12383;SDS011;6256;63.808;20.336;2022-09-03T18:44:28;1.07;;;0.87;;
12383;SDS011;6256;63.808;20.336;2022-09-03T18:50:56;1.07;;;0.90;;
12383;SDS011;6256;63.808;20.336;2022-09-03T19:08:55;0.93;;;0.83;;
12383;SDS011;6256;63.808;20.336;2022-09-03T19:11:54;0.80;;;0.80;;
12383;SDS011;6256;63.808;20.336;2022-09-03T19:24:11;1.17;;;1.07;;
12383;SDS011;6256;63.808;20.336;2022-09-03T19:27:10;1.30;;;1.17;;
12383;SDS011;6256;63.808;20.336;2022-09-03T19:30:24;1.30;;;1.20;;
12383;SDS011;6256;63.808;20.336;2022-09-03T19:39:10;1.50;;;1.40;;
12383;SDS011;6256;63.808;20.336;2022-09-03T19:42:17;1.43;;;1.03;;
12383;SDS011;6256;63.808;20.336;2022-09-03T19:45:25;2.20;;;1.00;;
12383;SDS011;6256;63.808;20.336;2022-09-03T19:48:35;1.27;;;1.13;;
12383;SDS011;6256;63.808;20.336;2022-09-03T19:54:54;1.00;;;1.00;;
12383;SDS011;6256;63.808;20.336;2022-09-03T19:57:40;1.23;;;1.07;;
12383;SDS011;6256;63.808;20.336;2022-09-03T20:00:28;1.57;;;1.10;;
12383;SDS011;6256;63.808;20.336;2022-09-03T20:03:15;1.40;;;1.30;;
12383;SDS011;6256;63.808;20.336;2022-09-03T20:06:00;1.10;;;1.00;;
12383;SDS011;6256;63.808;20.336;2022-09-03T20:08:47;1.30;;;1.20;;
12383;SDS011;6256;63.808;20.336;2022-09-03T20:11:33;1.57;;;1.03;;
12383;SDS011;6256;63.808;20.336;2022-09-03T20:14:02;1.77;;;1.27;;
12383;SDS011;6256;63.808;20.336;2022-09-03T20:16:49;0.90;;;0.87;;
12383;SDS011;6256;63.808;20.336;2022-09-03T20:27:43;1.43;;;1.30;;
12383;SDS011;6256;63.808;20.336;2022-09-03T20:30:28;1.83;;;1.33;;
12383;SDS011;6256;63.808;20.336;2022-09-03T20:33:24;2.27;;;1.30;;
12383;SDS011;6256;63.808;20.336;2022-09-03T20:36:28;2.33;;;1.20;;
12383;SDS011;6256;63.808;20.336;2022-09-03T20:42:32;1.30;;;1.20;;
12383;SDS011;6256;63.808;20.336;2022-09-03T20:45:12;2.00;;;1.43;;
12383;SDS011;6256;63.808;20.336;2022-09-03T20:47:54;1.53;;;1.33;;
12383;SDS011;6256;63.808;20.336;2022-09-03T20:50:45;1.83;;;1.30;;
12383;SDS011;6256;63.808;20.336;2022-09-03T20:55:48;1.27;;;1.17;;
12383;SDS011;6256;63.808;20.336;2022-09-03T20:58:33;2.70;;;1.47;;
12383;SDS011;6256;63.808;20.336;2022-09-03T21:01:04;2.03;;;1.50;;
12383;SDS011;6256;63.808;20.336;2022-09-03T21:06:25;1.80;;;1.70;;
12383;SDS011;6256;63.808;20.336;2022-09-03T21:09:15;3.40;;;1.80;;
12383;SDS011;6256;63.808;20.336;2022-09-03T21:14:32;2.20;;;2.00;;
12383;SDS011;6256;63.808;20.336;2022-09-03T21:17:17;2.57;;;2.03;;
12383;SDS011;6256;63.808;20.336;2022-09-03T21:19:59;2.70;;;2.10;;
12383;SDS011;6256;63.808;20.336;2022-09-03T21:28:21;3.40;;;2.73;;
12383;SDS011;6256;63.808;20.336;2022-09-03T21:30:49;1.87;;;1.70;;
12383;SDS011;6256;63.808;20.336;2022-09-03T21:33:25;2.30;;;2.10;;
12383;SDS011;6256;63.808;20.336;2022-09-03T21:35:57;2.80;;;2.23;;
12383;SDS011;6256;63.808;20.336;2022-09-03T21:38:32;3.07;;;2.07;;
12383;SDS011;6256;63.808;20.336;2022-09-03T21:41:10;3.70;;;2.30;;
12383;SDS011;6256;63.808;20.336;2022-09-03T21:43:44;3.33;;;2.13;;
12383;SDS011;6256;63.808;20.336;2022-09-03T21:46:26;3.43;;;2.20;;